sensor_id;sensor_type;location;lat;lon;timestamp;pressure;altitude;pressure_sealevel;temperature;humidity
21574;BME280;10948;48.706;9.258;2023-03-26T00:00:51;97335.56;;;9.92;100.00
21574;BME280;10948;48.706;9.258;2023-03-26T00:03:18;97329.88;;;9.73;100.00
21574;BME280;10948;48.706;9.258;2023-03-26T00:05:44;97338.38;;;9.75;100.00
21574;BME280;10948;48.706;9.258;2023-03-26T00:08:13;97331.34;;;9.77;100.00
21574;BME280;10948;48.706;9.258;2023-03-26T00:10:39;97328.50;;;9.94;100.00
21574;BME280;10948;48.706;9.258;2023-03-26T00:13:04;97325.13;;;10.06;100.00
21574;BME280;10948;48.706;9.258;2023-03-26T00:15:30;97324.28;;;10.06;100.00
21574;BME280;10948;48.706;9.258;2023-03-26T00:17:56;97327.13;;;10.15;100.00
21574;BME280;10948;48.706;9.258;2023-03-26T00:20:21;97322.91;;;10.00;100.00
21574;BME280;10948;48.706;9.258;2023-03-26T00:22:47;97309.34;;;9.95;100.00
21574;BME280;10948;48.706;9.258;2023-03-26T00:25:12;97312.81;;;9.96;100.00
21574;BME280;10948;48.706;9.258;2023-03-26T00:27:37;97322.97;;;9.86;100.00
21574;BME280;10948;48.706;9.258;2023-03-26T00:30:03;97329.34;;;9.95;100.00
21574;BME280;10948;48.706;9.258;2023-03-26T00:32:29;97329.97;;;9.98;100.00
21574;BME280;10948;48.706;9.258;2023-03-26T00:34:55;97335.53;;;10.06;100.00
21574;BME280;10948;48.706;9.258;2023-03-26T00:37:20;97333.69;;;9.94;100.00
21574;BME280;10948;48.706;9.258;2023-03-26T00:39:51;97335.16;;;9.98;100.00
21574;BME280;10948;48.706;9.258;2023-03-26T00:42:16;97325.81;;;9.96;100.00
21574;BME280;10948;48.706;9.258;2023-03-26T00:44:41;97330.66;;;9.88;100.00
21574;BME280;10948;48.706;9.258;2023-03-26T00:47:07;97328.88;;;9.88;100.00
21574;BME280;10948;48.706;9.258;2023-03-26T00:49:32;97323.66;;;9.76;100.00
21574;BME280;10948;48.706;9.258;2023-03-26T00:51:57;97316.81;;;9.87;100.00
21574;BME280;10948;48.706;9.258;2023-03-26T00:54:22;97320.53;;;9.83;100.00
21574;BME280;10948;48.706;9.258;2023-03-26T00:56:48;97306.25;;;9.90;100.00
21574;BME280;10948;48.706;9.258;2023-03-26T00:59:13;97302.63;;;9.66;100.00
21574;BME280;10948;48.706;9.258;2023-03-26T01:01:38;97300.69;;;9.82;100.00
21574;BME280;10948;48.706;9.258;2023-03-26T01:04:18;97295.31;;;9.85;100.00
21574;BME280;10948;48.706;9.258;2023-03-26T01:06:44;97295.50;;;9.82;100.00
21574;BME280;10948;48.706;9.258;2023-03-26T01:09:14;97285.72;;;9.86;100.00
21574;BME280;10948;48.706;9.258;2023-03-26T01:11:40;97285.16;;;9.68;100.00
21574;BME280;10948;48.706;9.258;2023-03-26T01:14:07;97278.94;;;9.71;100.00
21574;BME280;10948;48.706;9.258;2023-03-26T01:16:39;97272.31;;;9.79;100.00
21574;BME280;10948;48.706;9.258;2023-03-26T01:19:06;97272.94;;;9.56;100.00
21574;BME280;10948;48.706;9.258;2023-03-26T01:21:34;97266.22;;;9.54;100.00
21574;BME280;10948;48.706;9.258;2023-03-26T01:24:00;97259.00;;;9.71;100.00
21574;BME280;10948;48.706;9.258;2023-03-26T01:28:54;97250.81;;;9.77;100.00
21574;BME280;10948;48.706;9.258;2023-03-26T01:31:28;97240.69;;;9.73;100.00
21574;BME280;10948;48.706;9.258;2023-03-26T01:34:06;97247.13;;;9.67;100.00
21574;BME280;10948;48.706;9.258;2023-03-26T01:37:11;97244.47;;;9.81;100.00
21574;BME280;10948;48.706;9.258;2023-03-26T01:39:34;97235.25;;;9.63;100.00
21574;BME280;10948;48.706;9.258;2023-03-26T01:42:06;97233.97;;;9.56;100.00
21574;BME280;10948;48.706;9.258;2023-03-26T01:44:39;97230.28;;;9.60;100.00
21574;BME280;10948;48.706;9.258;2023-03-26T01:47:07;97220.28;;;9.54;100.00
21574;BME280;10948;48.706;9.258;2023-03-26T01:49:33;97218.00;;;9.62;100.00
21574;BME280;10948;48.706;9.258;2023-03-26T01:51:59;97220.50;;;9.64;100.00
21574;BME280;10948;48.706;9.258;2023-03-26T01:54:25;97211.78;;;9.65;100.00
21574;BME280;10948;48.706;9.258;2023-03-26T02:04:34;97192.25;;;9.59;100.00
21574;BME280;10948;48.706;9.258;2023-03-26T02:07:07;97175.81;;;9.59;100.00
21574;BME280;10948;48.706;9.258;2023-03-26T02:09:37;97187.03;;;9.59;100.00
21574;BME280;10948;48.706;9.258;2023-03-26T02:12:06;97175.00;;;9.58;100.00
21574;BME280;10948;48.706;9.258;2023-03-26T02:14:32;97178.84;;;9.65;100.00
21574;BME280;10948;48.706;9.258;2023-03-26T02:16:58;97177.06;;;9.53;100.00
21574;BME280;10948;48.706;9.258;2023-03-26T02:19:24;97166.66;;;9.53;100.00
21574;BME280;10948;48.706;9.258;2023-03-26T02:21:50;97155.47;;;9.65;100.00
21574;BME280;10948;48.706;9.258;2023-03-26T02:24:16;97154.00;;;9.61;100.00
21574;BME280;10948;48.706;9.258;2023-03-26T02:26:42;97145.78;;;9.55;100.00
21574;BME280;10948;48.706;9.258;2023-03-26T02:29:07;97146.72;;;9.54;100.00
21574;BME280;10948;48.706;9.258;2023-03-26T02:31:33;97138.63;;;9.58;100.00
21574;BME280;10948;48.706;9.258;2023-03-26T02:33:59;97135.72;;;9.50;100.00
21574;BME280;10948;48.706;9.258;2023-03-26T02:36:25;97139.44;;;9.46;100.00
21574;BME280;10948;48.706;9.258;2023-03-26T02:38:51;97147.94;;;9.48;100.00
21574;BME280;10948;48.706;9.258;2023-03-26T02:41:16;97148.09;;;9.33;100.00
21574;BME280;10948;48.706;9.258;2023-03-26T02:43:41;97141.69;;;9.38;100.00
21574;BME280;10948;48.706;9.258;2023-03-26T02:46:07;97135.72;;;9.50;100.00
21574;BME280;10948;48.706;9.258;2023-03-26T02:48:32;97131.72;;;9.45;100.00
21574;BME280;10948;48.706;9.258;2023-03-26T02:50:58;97123.84;;;9.46;100.00
21574;BME280;10948;48.706;9.258;2023-03-26T02:53:24;97128.81;;;9.49;100.00
21574;BME280;10948;48.706;9.258;2023-03-26T02:55:55;97123.13;;;9.44;100.00
21574;BME280;10948;48.706;9.258;2023-03-26T02:58:21;97118.44;;;9.49;100.00
21574;BME280;10948;48.706;9.258;2023-03-26T03:00:49;97114.94;;;9.50;100.00
21574;BME280;10948;48.706;9.258;2023-03-26T03:03:14;97109.31;;;9.56;100.00
21574;BME280;10948;48.706;9.258;2023-03-26T03:05:41;97106.38;;;9.48;100.00
21574;BME280;10948;48.706;9.258;2023-03-26T03:08:07;97101.31;;;9.59;100.00
21574;BME280;10948;48.706;9.258;2023-03-26T03:10:33;97085.03;;;9.57;100.00
21574;BME280;10948;48.706;9.258;2023-03-26T03:12:58;97083.97;;;9.47;100.00
21574;BME280;10948;48.706;9.258;2023-03-26T03:15:23;97084.81;;;9.48;100.00
21574;BME280;10948;48.706;9.258;2023-03-26T03:17:49;97075.22;;;9.36;100.00
21574;BME280;10948;48.706;9.258;2023-03-26T03:20:14;97073.03;;;9.42;100.00
21574;BME280;10948;48.706;9.258;2023-03-26T03:22:40;97069.19;;;9.35;100.00
21574;BME280;10948;48.706;9.258;2023-03-26T03:25:06;97058.16;;;9.32;100.00
21574;BME280;10948;48.706;9.258;2023-03-26T03:27:38;97054.44;;;9.36;100.00
21574;BME280;10948;48.706;9.258;2023-03-26T03:30:03;97054.03;;;9.42;100.00
21574;BME280;10948;48.706;9.258;2023-03-26T03:32:29;97051.00;;;9.35;100.00
21574;BME280;10948;48.706;9.258;2023-03-26T03:34:54;97037.09;;;9.36;100.00
21574;BME280;10948;48.706;9.258;2023-03-26T03:37:19;97041.38;;;9.37;100.00
21574;BME280;10948;48.706;9.258;2023-03-26T03:39:45;97033.47;;;9.39;100.00
21574;BME280;10948;48.706;9.258;2023-03-26T03:42:10;97030.78;;;9.40;100.00
21574;BME280;10948;48.706;9.258;2023-03-26T03:44:35;97029.75;;;9.30;100.00
21574;BME280;10948;48.706;9.258;2023-03-26T03:47:00;97030.38;;;9.34;100.00
21574;BME280;10948;48.706;9.258;2023-03-26T03:49:26;97029.28;;;9.24;100.00
21574;BME280;10948;48.706;9.258;2023-03-26T03:51:51;97027.00;;;9.32;100.00
21574;BME280;10948;48.706;9.258;2023-03-26T03:54:16;97023.19;;;9.37;100.00
21574;BME280;10948;48.706;9.258;2023-03-26T03:56:41;97032.03;;;9.35;100.00
21574;BME280;10948;48.706;9.258;2023-03-26T03:59:09;97028.69;;;9.33;100.00
21574;BME280;10948;48.706;9.258;2023-03-26T04:01:35;97012.81;;;9.37;100.00
21574;BME280;10948;48.706;9.258;2023-03-26T04:04:00;97013.94;;;9.33;100.00
21574;BME280;10948;48.706;9.258;2023-03-26T04:06:25;97012.28;;;9.32;100.00
21574;BME280;10948;48.706;9.258;2023-03-26T04:08:54;97007.09;;;9.32;100.00
21574;BME280;10948;48.706;9.258;2023-03-26T04:11:19;96999.09;;;9.35;100.00
21574;BME280;10948;48.706;9.258;2023-03-26T04:13:44;96992.88;;;9.25;100.00
21574;BME280;10948;48.706;9.258;2023-03-26T04:16:09;96990.97;;;9.27;100.00
21574;BME280;10948;48.706;9.258;2023-03-26T04:18:35;96993.38;;;9.18;100.00
21574;BME280;10948;48.706;9.258;2023-03-26T04:21:01;96985.47;;;9.19;100.00
21574;BME280;10948;48.706;9.258;2023-03-26T04:23:27;96985.88;;;9.26;100.00
21574;BME280;10948;48.706;9.258;2023-03-26T04:25:53;96980.06;;;9.22;100.00
21574;BME280;10948;48.706;9.258;2023-03-26T04:28:41;96976.13;;;9.29;100.00
21574;BME280;10948;48.706;9.258;2023-03-26T04:31:07;96960.97;;;9.23;100.00
21574;BME280;10948;48.706;9.258;2023-03-26T04:33:35;96956.09;;;9.31;100.00
21574;BME280;10948;48.706;9.258;2023-03-26T04:36:03;96957.94;;;9.29;100.00
21574;BME280;10948;48.706;9.258;2023-03-26T04:38:29;96956.84;;;9.21;100.00
21574;BME280;10948;48.706;9.258;2023-03-26T04:40:57;96951.63;;;9.33;100.00
21574;BME280;10948;48.706;9.258;2023-03-26T04:43:24;96939.16;;;9.26;100.00
21574;BME280;10948;48.706;9.258;2023-03-26T04:45:50;96939.16;;;9.26;100.00
21574;BME280;10948;48.706;9.258;2023-03-26T04:48:16;96948.09;;;9.22;100.00
21574;BME280;10948;48.706;9.258;2023-03-26T04:50:41;96934.09;;;9.24;100.00
21574;BME280;10948;48.706;9.258;2023-03-26T04:53:08;96933.16;;;9.25;100.00
21574;BME280;10948;48.706;9.258;2023-03-26T04:58:21;96914.03;;;9.26;100.00
21574;BME280;10948;48.706;9.258;2023-03-26T05:00:46;96922.78;;;9.25;100.00
21574;BME280;10948;48.706;9.258;2023-03-26T05:03:13;96924.63;;;9.23;100.00
21574;BME280;10948;48.706;9.258;2023-03-26T05:05:39;96921.31;;;9.21;100.00
21574;BME280;10948;48.706;9.258;2023-03-26T05:08:05;96919.03;;;9.17;100.00
21574;BME280;10948;48.706;9.258;2023-03-26T05:10:30;96921.84;;;9.26;100.00
21574;BME280;10948;48.706;9.258;2023-03-26T05:12:56;96926.91;;;9.03;100.00
21574;BME280;10948;48.706;9.258;2023-03-26T05:15:21;96920.91;;;9.15;100.00
21574;BME280;10948;48.706;9.258;2023-03-26T05:17:46;96918.81;;;9.07;100.00
21574;BME280;10948;48.706;9.258;2023-03-26T05:20:19;96913.22;;;9.13;100.00
21574;BME280;10948;48.706;9.258;2023-03-26T05:22:45;96906.16;;;9.28;100.00
21574;BME280;10948;48.706;9.258;2023-03-26T05:25:11;96903.66;;;9.26;100.00
21574;BME280;10948;48.706;9.258;2023-03-26T05:27:36;96892.47;;;9.13;100.00
21574;BME280;10948;48.706;9.258;2023-03-26T05:30:03;96889.34;;;9.21;100.00
21574;BME280;10948;48.706;9.258;2023-03-26T05:32:29;96880.28;;;9.26;100.00
21574;BME280;10948;48.706;9.258;2023-03-26T05:34:54;96880.28;;;9.26;100.00
21574;BME280;10948;48.706;9.258;2023-03-26T05:37:20;96885.19;;;9.18;100.00
21574;BME280;10948;48.706;9.258;2023-03-26T05:39:51;96879.38;;;9.15;100.00
21574;BME280;10948;48.706;9.258;2023-03-26T05:42:16;96872.94;;;9.20;100.00
21574;BME280;10948;48.706;9.258;2023-03-26T05:44:41;96865.84;;;9.22;100.00
21574;BME280;10948;48.706;9.258;2023-03-26T05:47:06;96867.09;;;9.29;100.00
21574;BME280;10948;48.706;9.258;2023-03-26T05:49:31;96866.09;;;9.19;100.00
21574;BME280;10948;48.706;9.258;2023-03-26T05:51:57;96858.16;;;9.33;100.00
21574;BME280;10948;48.706;9.258;2023-03-26T05:54:22;96855.28;;;9.25;100.00
21574;BME280;10948;48.706;9.258;2023-03-26T05:56:47;96853.09;;;9.07;100.00
21574;BME280;10948;48.706;9.258;2023-03-26T05:59:13;96845.97;;;9.10;100.00
21574;BME280;10948;48.706;9.258;2023-03-26T06:01:38;96832.25;;;9.21;100.00
21574;BME280;10948;48.706;9.258;2023-03-26T06:04:03;96817.09;;;9.15;100.00
21574;BME280;10948;48.706;9.258;2023-03-26T06:06:29;96826.22;;;9.20;100.00
21574;BME280;10948;48.706;9.258;2023-03-26T06:08:54;96817.78;;;9.29;100.00
21574;BME280;10948;48.706;9.258;2023-03-26T06:11:19;96810.41;;;9.23;100.00
21574;BME280;10948;48.706;9.258;2023-03-26T06:13:45;96805.41;;;9.33;100.00
21574;BME280;10948;48.706;9.258;2023-03-26T06:16:11;96799.81;;;9.26;100.00
21574;BME280;10948;48.706;9.258;2023-03-26T06:18:37;96800.34;;;9.31;100.00
21574;BME280;10948;48.706;9.258;2023-03-26T06:21:03;96798.16;;;9.25;100.00
21574;BME280;10948;48.706;9.258;2023-03-26T06:23:28;96796.72;;;9.21;100.00
21574;BME280;10948;48.706;9.258;2023-03-26T06:25:54;96791.53;;;9.21;100.00
21574;BME280;10948;48.706;9.258;2023-03-26T06:28:19;96782.16;;;9.31;100.00
21574;BME280;10948;48.706;9.258;2023-03-26T06:30:44;96779.66;;;9.30;100.00
21574;BME280;10948;48.706;9.258;2023-03-26T06:33:09;96777.59;;;9.22;100.00
21574;BME280;10948;48.706;9.258;2023-03-26T06:35:35;96775.47;;;9.40;100.00
21574;BME280;10948;48.706;9.258;2023-03-26T06:38:00;96782.22;;;9.42;100.00
21574;BME280;10948;48.706;9.258;2023-03-26T06:40:26;96778.34;;;9.24;100.00
21574;BME280;10948;48.706;9.258;2023-03-26T06:42:51;96766.84;;;9.03;100.00
21574;BME280;10948;48.706;9.258;2023-03-26T06:45:17;96767.69;;;9.04;100.00
21574;BME280;10948;48.706;9.258;2023-03-26T06:47:42;96763.34;;;9.04;100.00
21574;BME280;10948;48.706;9.258;2023-03-26T06:50:07;96766.34;;;9.34;100.00
21574;BME280;10948;48.706;9.258;2023-03-26T06:52:33;96760.19;;;9.24;100.00
21574;BME280;10948;48.706;9.258;2023-03-26T06:54:58;96746.75;;;9.30;100.00
21574;BME280;10948;48.706;9.258;2023-03-26T06:57:23;96749.06;;;9.46;100.00
21574;BME280;10948;48.706;9.258;2023-03-26T06:59:48;96744.31;;;9.40;100.00
21574;BME280;10948;48.706;9.258;2023-03-26T07:02:14;96746.59;;;9.44;100.00
21574;BME280;10948;48.706;9.258;2023-03-26T07:04:39;96748.88;;;9.49;100.00
21574;BME280;10948;48.706;9.258;2023-03-26T07:07:04;96740.97;;;9.50;100.00
21574;BME280;10948;48.706;9.258;2023-03-26T07:09:30;96719.34;;;9.50;100.00
21574;BME280;10948;48.706;9.258;2023-03-26T07:11:55;96715.88;;;9.38;100.00
21574;BME280;10948;48.706;9.258;2023-03-26T07:14:21;96713.06;;;9.41;100.00
21574;BME280;10948;48.706;9.258;2023-03-26T07:16:46;96709.13;;;9.59;100.00
21574;BME280;10948;48.706;9.258;2023-03-26T07:19:11;96706.44;;;9.61;100.00
21574;BME280;10948;48.706;9.258;2023-03-26T07:21:37;96709.03;;;9.37;100.00
21574;BME280;10948;48.706;9.258;2023-03-26T07:24:02;96694.44;;;9.47;100.00
21574;BME280;10948;48.706;9.258;2023-03-26T07:26:45;96697.97;;;9.46;100.00
21574;BME280;10948;48.706;9.258;2023-03-26T07:34:50;96687.34;;;9.49;100.00
21574;BME280;10948;48.706;9.258;2023-03-26T07:39:48;96666.50;;;9.27;100.00
21574;BME280;10948;48.706;9.258;2023-03-26T07:47:18;96662.16;;;9.28;100.00
21574;BME280;10948;48.706;9.258;2023-03-26T07:49:46;96658.97;;;9.35;100.00
21574;BME280;10948;48.706;9.258;2023-03-26T07:52:11;96651.16;;;9.24;100.00
21574;BME280;10948;48.706;9.258;2023-03-26T07:54:37;96645.34;;;9.21;100.00
21574;BME280;10948;48.706;9.258;2023-03-26T07:57:03;96651.09;;;9.13;100.00
21574;BME280;10948;48.706;9.258;2023-03-26T07:59:34;96642.63;;;9.22;100.00
21574;BME280;10948;48.706;9.258;2023-03-26T08:02:11;96644.19;;;9.25;100.00
21574;BME280;10948;48.706;9.258;2023-03-26T08:09:34;96654.66;;;9.23;100.00
21574;BME280;10948;48.706;9.258;2023-03-26T08:17:13;96648.06;;;9.19;100.00
21574;BME280;10948;48.706;9.258;2023-03-26T08:22:40;96621.97;;;9.44;100.00
21574;BME280;10948;48.706;9.258;2023-03-26T08:27:46;96625.41;;;9.21;100.00
21574;BME280;10948;48.706;9.258;2023-03-26T08:30:22;96633.97;;;9.34;100.00
21574;BME280;10948;48.706;9.258;2023-03-26T08:32:52;96623.38;;;9.37;100.00
21574;BME280;10948;48.706;9.258;2023-03-26T08:35:18;96614.03;;;9.46;100.00
21574;BME280;10948;48.706;9.258;2023-03-26T08:37:43;96601.22;;;9.55;100.00
21574;BME280;10948;48.706;9.258;2023-03-26T08:40:09;96607.75;;;9.61;100.00
21574;BME280;10948;48.706;9.258;2023-03-26T09:01:18;96604.84;;;9.98;100.00
21574;BME280;10948;48.706;9.258;2023-03-26T09:37:27;96586.59;;;12.50;100.00
21574;BME280;10948;48.706;9.258;2023-03-26T09:42:30;96562.50;;;14.54;98.32
21574;BME280;10948;48.706;9.258;2023-03-26T09:55:41;96551.31;;;17.97;77.48
21574;BME280;10948;48.706;9.258;2023-03-26T10:03:27;96542.44;;;17.34;75.87
21574;BME280;10948;48.706;9.258;2023-03-26T10:06:03;96546.94;;;18.52;72.45
21574;BME280;10948;48.706;9.258;2023-03-26T10:16:54;96552.31;;;16.67;73.24
21574;BME280;10948;48.706;9.258;2023-03-26T10:22:00;96541.97;;;16.07;76.28
21574;BME280;10948;48.706;9.258;2023-03-26T10:37:03;96529.88;;;18.32;62.73
21574;BME280;10948;48.706;9.258;2023-03-26T10:52:20;96524.84;;;17.83;58.38
21574;BME280;10948;48.706;9.258;2023-03-26T10:54:54;96518.78;;;17.58;58.10
21574;BME280;10948;48.706;9.258;2023-03-26T10:59:45;96534.81;;;19.35;52.33
21574;BME280;10948;48.706;9.258;2023-03-26T11:02:24;96538.22;;;19.21;53.44
21574;BME280;10948;48.706;9.258;2023-03-26T11:05:13;96540.41;;;18.32;55.20
21574;BME280;10948;48.706;9.258;2023-03-26T11:07:43;96545.69;;;18.32;54.86
21574;BME280;10948;48.706;9.258;2023-03-26T11:13:02;96547.47;;;18.78;53.49
21574;BME280;10948;48.706;9.258;2023-03-26T11:18:06;96539.41;;;18.25;53.18
21574;BME280;10948;48.706;9.258;2023-03-26T11:23:35;96534.72;;;17.81;52.74
21574;BME280;10948;48.706;9.258;2023-03-26T11:26:05;96528.72;;;18.35;52.08
21574;BME280;10948;48.706;9.258;2023-03-26T11:31:03;96518.75;;;19.44;51.80
21574;BME280;10948;48.706;9.258;2023-03-26T11:33:40;96523.56;;;20.73;49.20
21574;BME280;10948;48.706;9.258;2023-03-26T11:36:08;96517.28;;;19.11;49.58
21574;BME280;10948;48.706;9.258;2023-03-26T11:39:09;96524.75;;;20.56;48.34
21574;BME280;10948;48.706;9.258;2023-03-26T11:41:28;96525.25;;;21.09;48.08
21574;BME280;10948;48.706;9.258;2023-03-26T11:44:00;96530.00;;;19.98;50.13
21574;BME280;10948;48.706;9.258;2023-03-26T11:46:27;96523.91;;;21.34;48.13
21574;BME280;10948;48.706;9.258;2023-03-26T11:48:57;96510.00;;;21.11;47.21
21574;BME280;10948;48.706;9.258;2023-03-26T11:53:48;96510.28;;;20.52;46.50
21574;BME280;10948;48.706;9.258;2023-03-26T11:59:00;96511.25;;;20.65;48.43
21574;BME280;10948;48.706;9.258;2023-03-26T12:02:15;96514.28;;;20.48;47.05
21574;BME280;10948;48.706;9.258;2023-03-26T12:04:26;96512.03;;;20.95;46.91
21574;BME280;10948;48.706;9.258;2023-03-26T12:07:05;96508.34;;;21.10;45.93
21574;BME280;10948;48.706;9.258;2023-03-26T12:09:30;96513.59;;;20.02;45.71
21574;BME280;10948;48.706;9.258;2023-03-26T12:11:59;96496.44;;;21.21;43.92
21574;BME280;10948;48.706;9.258;2023-03-26T12:14:27;96508.97;;;20.77;43.24
21574;BME280;10948;48.706;9.258;2023-03-26T12:16:57;96514.25;;;19.90;43.62
21574;BME280;10948;48.706;9.258;2023-03-26T12:19:23;96495.91;;;19.88;43.46
21574;BME280;10948;48.706;9.258;2023-03-26T12:21:52;96510.22;;;20.95;43.95
21574;BME280;10948;48.706;9.258;2023-03-26T12:24:24;96505.78;;;20.81;42.53
21574;BME280;10948;48.706;9.258;2023-03-26T12:26:55;96498.78;;;21.51;43.02
21574;BME280;10948;48.706;9.258;2023-03-26T12:29:20;96493.81;;;21.63;42.93
21574;BME280;10948;48.706;9.258;2023-03-26T12:31:51;96493.47;;;21.93;41.35
21574;BME280;10948;48.706;9.258;2023-03-26T12:34:19;96500.19;;;21.96;40.82
21574;BME280;10948;48.706;9.258;2023-03-26T12:36:54;96504.72;;;22.29;39.52
21574;BME280;10948;48.706;9.258;2023-03-26T12:39:31;96496.78;;;22.02;39.11
21574;BME280;10948;48.706;9.258;2023-03-26T12:41:58;96492.25;;;21.68;40.20
21574;BME280;10948;48.706;9.258;2023-03-26T12:44:32;96489.38;;;21.91;40.30
21574;BME280;10948;48.706;9.258;2023-03-26T12:47:09;96494.25;;;21.45;39.22
21574;BME280;10948;48.706;9.258;2023-03-26T12:49:35;96480.63;;;22.24;40.77
21574;BME280;10948;48.706;9.258;2023-03-26T12:54:52;96474.56;;;20.91;41.61
21574;BME280;10948;48.706;9.258;2023-03-26T12:57:21;96465.56;;;21.97;41.01
21574;BME280;10948;48.706;9.258;2023-03-26T12:59:54;96470.78;;;21.63;40.22
21574;BME280;10948;48.706;9.258;2023-03-26T13:15:39;96464.31;;;20.67;41.45
21574;BME280;10948;48.706;9.258;2023-03-26T13:34:06;96427.06;;;20.69;38.85
21574;BME280;10948;48.706;9.258;2023-03-26T13:44:01;96413.97;;;19.30;39.63
21574;BME280;10948;48.706;9.258;2023-03-26T13:46:35;96413.56;;;19.19;39.92
21574;BME280;10948;48.706;9.258;2023-03-26T13:49:12;96416.13;;;18.59;41.14
21574;BME280;10948;48.706;9.258;2023-03-26T13:51:59;96413.44;;;18.67;42.03
21574;BME280;10948;48.706;9.258;2023-03-26T13:54:40;96409.25;;;18.50;42.92
21574;BME280;10948;48.706;9.258;2023-03-26T14:02:00;96393.00;;;18.08;42.16
21574;BME280;10948;48.706;9.258;2023-03-26T14:04:43;96393.72;;;17.94;42.67
21574;BME280;10948;48.706;9.258;2023-03-26T14:07:21;96404.84;;;18.04;43.44
21574;BME280;10948;48.706;9.258;2023-03-26T14:09:56;96390.31;;;17.70;43.26
21574;BME280;10948;48.706;9.258;2023-03-26T14:12:31;96393.72;;;17.86;43.83
21574;BME280;10948;48.706;9.258;2023-03-26T14:15:02;96387.88;;;17.68;44.15
21574;BME280;10948;48.706;9.258;2023-03-26T14:28:00;96415.50;;;16.45;50.65
21574;BME280;10948;48.706;9.258;2023-03-26T14:30:46;96433.97;;;16.27;55.04
21574;BME280;10948;48.706;9.258;2023-03-26T14:48:54;96479.97;;;14.77;68.86
21574;BME280;10948;48.706;9.258;2023-03-26T14:51:27;96474.28;;;14.64;70.07
21574;BME280;10948;48.706;9.258;2023-03-26T14:53:59;96467.78;;;14.85;68.31
21574;BME280;10948;48.706;9.258;2023-03-26T14:56:45;96462.00;;;15.17;67.43
21574;BME280;10948;48.706;9.258;2023-03-26T15:09:48;96474.72;;;15.12;67.23
21574;BME280;10948;48.706;9.258;2023-03-26T15:22:47;96499.31;;;14.22;67.86
21574;BME280;10948;48.706;9.258;2023-03-26T15:25:29;96495.44;;;14.70;68.45
21574;BME280;10948;48.706;9.258;2023-03-26T15:35:59;96494.38;;;14.19;72.39
21574;BME280;10948;48.706;9.258;2023-03-26T15:41:25;96504.69;;;13.84;74.15
21574;BME280;10948;48.706;9.258;2023-03-26T15:54:08;96500.94;;;13.31;74.04
21574;BME280;10948;48.706;9.258;2023-03-26T16:07:02;96514.06;;;12.44;77.26
21574;BME280;10948;48.706;9.258;2023-03-26T16:20:44;96507.94;;;13.21;74.85
21574;BME280;10948;48.706;9.258;2023-03-26T16:23:56;96522.34;;;12.87;75.29
21574;BME280;10948;48.706;9.258;2023-03-26T16:26:09;96528.81;;;12.73;77.71
21574;BME280;10948;48.706;9.258;2023-03-26T16:29:22;96535.50;;;12.57;76.84
21574;BME280;10948;48.706;9.258;2023-03-26T16:31:22;96538.56;;;12.81;76.76
21574;BME280;10948;48.706;9.258;2023-03-26T16:34:24;96538.59;;;12.02;78.29
21574;BME280;10948;48.706;9.258;2023-03-26T16:36:45;96545.22;;;12.06;78.45
21574;BME280;10948;48.706;9.258;2023-03-26T16:39:20;96548.59;;;12.27;78.95
21574;BME280;10948;48.706;9.258;2023-03-26T16:54:52;96542.63;;;12.06;79.05
21574;BME280;10948;48.706;9.258;2023-03-26T17:00:41;96554.50;;;11.69;80.26
21574;BME280;10948;48.706;9.258;2023-03-26T17:08:20;96544.75;;;11.50;83.29
21574;BME280;10948;48.706;9.258;2023-03-26T17:10:58;96554.47;;;11.59;82.73
21574;BME280;10948;48.706;9.258;2023-03-26T17:18:45;96558.09;;;11.57;82.90
21574;BME280;10948;48.706;9.258;2023-03-26T17:21:25;96565.75;;;11.17;83.58
21574;BME280;10948;48.706;9.258;2023-03-26T17:26:24;96573.84;;;11.35;84.82
21574;BME280;10948;48.706;9.258;2023-03-26T17:33:43;96564.06;;;11.48;83.20
21574;BME280;10948;48.706;9.258;2023-03-26T17:41:08;96572.53;;;11.09;86.38
21574;BME280;10948;48.706;9.258;2023-03-26T17:46:47;96575.50;;;10.73;86.73
21574;BME280;10948;48.706;9.258;2023-03-26T17:48:58;96576.53;;;11.13;85.59
21574;BME280;10948;48.706;9.258;2023-03-26T17:54:19;96580.06;;;11.23;86.17
21574;BME280;10948;48.706;9.258;2023-03-26T17:56:47;96573.69;;;11.16;85.35
21574;BME280;10948;48.706;9.258;2023-03-26T17:59:16;96575.13;;;11.09;87.04
21574;BME280;10948;48.706;9.258;2023-03-26T18:01:47;96564.53;;;11.01;87.32
21574;BME280;10948;48.706;9.258;2023-03-26T18:04:14;96562.41;;;10.95;88.04
21574;BME280;10948;48.706;9.258;2023-03-26T18:12:13;96567.47;;;10.65;90.54
21574;BME280;10948;48.706;9.258;2023-03-26T18:17:09;96567.22;;;10.68;90.44
21574;BME280;10948;48.706;9.258;2023-03-26T18:22:22;96569.78;;;10.15;93.10
21574;BME280;10948;48.706;9.258;2023-03-26T18:24:49;96576.25;;;10.53;91.52
21574;BME280;10948;48.706;9.258;2023-03-26T18:27:17;96571.19;;;10.41;90.61
21574;BME280;10948;48.706;9.258;2023-03-26T18:30:28;96578.41;;;10.37;91.46
21574;BME280;10948;48.706;9.258;2023-03-26T18:32:29;96593.75;;;10.51;90.42
21574;BME280;10948;48.706;9.258;2023-03-26T18:35:01;96592.69;;;10.43;90.15
21574;BME280;10948;48.706;9.258;2023-03-26T18:37:37;96599.69;;;10.31;91.48
21574;BME280;10948;48.706;9.258;2023-03-26T18:42:35;96595.78;;;10.48;90.84
21574;BME280;10948;48.706;9.258;2023-03-26T18:45:02;96597.41;;;10.49;91.04
21574;BME280;10948;48.706;9.258;2023-03-26T18:47:29;96592.34;;;10.36;91.93
21574;BME280;10948;48.706;9.258;2023-03-26T18:49:55;96585.03;;;10.30;92.02
21574;BME280;10948;48.706;9.258;2023-03-26T18:52:21;96580.38;;;10.45;91.99
21574;BME280;10948;48.706;9.258;2023-03-26T18:54:47;96583.59;;;10.15;92.71
21574;BME280;10948;48.706;9.258;2023-03-26T18:57:20;96585.13;;;10.40;93.41
21574;BME280;10948;48.706;9.258;2023-03-26T18:59:47;96581.22;;;10.45;92.33
21574;BME280;10948;48.706;9.258;2023-03-26T19:02:13;96582.66;;;10.38;92.20
21574;BME280;10948;48.706;9.258;2023-03-26T19:04:40;96578.88;;;10.31;93.23
21574;BME280;10948;48.706;9.258;2023-03-26T19:07:09;96582.41;;;10.08;94.24